sensor_id;sensor_type;location;lat;lon;timestamp;P1;durP1;ratioP1;P2;durP2;ratioP2
19889;SDS011;10107;51.198;6.824;2024-01-27T00:01:38;10.63;;;3.10;;
19889;SDS011;10107;51.198;6.824;2024-01-27T00:05:39;8.65;;;2.92;;
19889;SDS011;10107;51.198;6.824;2024-01-27T00:09:41;8.15;;;2.92;;
19889;SDS011;10107;51.198;6.824;2024-01-27T00:13:44;13.90;;;3.30;;
19889;SDS011;10107;51.198;6.824;2024-01-27T00:21:48;4.57;;;2.65;;
19889;SDS011;10107;51.198;6.824;2024-01-27T00:25:50;9.20;;;2.75;;
19889;SDS011;10107;51.198;6.824;2024-01-27T00:29:52;6.70;;;3.08;;
19889;SDS011;10107;51.198;6.824;2024-01-27T00:33:54;8.60;;;2.90;;
19889;SDS011;10107;51.198;6.824;2024-01-27T00:37:56;6.97;;;3.15;;
19889;SDS011;10107;51.198;6.824;2024-01-27T00:41:58;7.35;;;2.78;;
19889;SDS011;10107;51.198;6.824;2024-01-27T00:46:01;8.38;;;3.10;;
19889;SDS011;10107;51.198;6.824;2024-01-27T00:50:03;4.97;;;2.72;;
19889;SDS011;10107;51.198;6.824;2024-01-27T00:54:06;8.40;;;2.80;;
19889;SDS011;10107;51.198;6.824;2024-01-27T00:58:07;6.60;;;3.58;;
19889;SDS011;10107;51.198;6.824;2024-01-27T01:02:10;9.88;;;3.65;;
19889;SDS011;10107;51.198;6.824;2024-01-27T01:06:12;7.45;;;3.35;;
19889;SDS011;10107;51.198;6.824;2024-01-27T01:10:14;5.55;;;2.83;;
19889;SDS011;10107;51.198;6.824;2024-01-27T01:14:16;6.55;;;3.22;;
19889;SDS011;10107;51.198;6.824;2024-01-27T01:18:19;7.57;;;3.50;;
19889;SDS011;10107;51.198;6.824;2024-01-27T01:22:21;7.03;;;3.05;;
19889;SDS011;10107;51.198;6.824;2024-01-27T01:26:23;8.73;;;3.10;;
19889;SDS011;10107;51.198;6.824;2024-01-27T01:30:25;7.20;;;2.92;;
19889;SDS011;10107;51.198;6.824;2024-01-27T01:34:29;9.52;;;3.47;;
19889;SDS011;10107;51.198;6.824;2024-01-27T01:38:30;10.02;;;3.80;;
19889;SDS011;10107;51.198;6.824;2024-01-27T01:42:32;10.13;;;3.53;;
19889;SDS011;10107;51.198;6.824;2024-01-27T01:46:34;6.57;;;3.13;;
19889;SDS011;10107;51.198;6.824;2024-01-27T01:50:37;7.30;;;3.38;;
19889;SDS011;10107;51.198;6.824;2024-01-27T01:54:38;10.73;;;4.20;;
19889;SDS011;10107;51.198;6.824;2024-01-27T01:58:40;6.78;;;3.75;;
19889;SDS011;10107;51.198;6.824;2024-01-27T02:02:42;9.43;;;3.92;;
19889;SDS011;10107;51.198;6.824;2024-01-27T02:06:47;5.80;;;3.38;;
19889;SDS011;10107;51.198;6.824;2024-01-27T02:10:49;7.40;;;3.40;;
19889;SDS011;10107;51.198;6.824;2024-01-27T02:14:51;8.85;;;3.55;;
19889;SDS011;10107;51.198;6.824;2024-01-27T02:18:52;8.63;;;4.25;;
19889;SDS011;10107;51.198;6.824;2024-01-27T02:22:55;8.43;;;3.63;;
19889;SDS011;10107;51.198;6.824;2024-01-27T02:26:58;8.32;;;3.70;;
19889;SDS011;10107;51.198;6.824;2024-01-27T02:31:00;10.77;;;4.32;;
19889;SDS011;10107;51.198;6.824;2024-01-27T02:35:02;11.38;;;4.65;;
19889;SDS011;10107;51.198;6.824;2024-01-27T02:39:03;11.20;;;3.95;;
19889;SDS011;10107;51.198;6.824;2024-01-27T02:43:06;7.20;;;3.67;;
19889;SDS011;10107;51.198;6.824;2024-01-27T02:47:08;9.65;;;4.43;;
19889;SDS011;10107;51.198;6.824;2024-01-27T02:51:10;8.55;;;3.65;;
19889;SDS011;10107;51.198;6.824;2024-01-27T02:55:12;9.07;;;3.80;;
19889;SDS011;10107;51.198;6.824;2024-01-27T02:59:15;7.65;;;3.97;;
19889;SDS011;10107;51.198;6.824;2024-01-27T03:03:16;8.80;;;3.95;;
19889;SDS011;10107;51.198;6.824;2024-01-27T03:07:18;9.55;;;4.20;;
19889;SDS011;10107;51.198;6.824;2024-01-27T03:11:20;7.20;;;3.88;;
19889;SDS011;10107;51.198;6.824;2024-01-27T03:15:23;11.95;;;4.00;;
19889;SDS011;10107;51.198;6.824;2024-01-27T03:19:24;9.07;;;3.75;;
19889;SDS011;10107;51.198;6.824;2024-01-27T03:23:26;7.00;;;3.20;;
19889;SDS011;10107;51.198;6.824;2024-01-27T03:27:28;10.52;;;3.78;;
19889;SDS011;10107;51.198;6.824;2024-01-27T03:31:33;10.80;;;4.18;;
19889;SDS011;10107;51.198;6.824;2024-01-27T03:35:35;9.20;;;3.97;;
19889;SDS011;10107;51.198;6.824;2024-01-27T03:39:37;11.75;;;4.50;;
19889;SDS011;10107;51.198;6.824;2024-01-27T03:43:39;10.38;;;4.95;;
19889;SDS011;10107;51.198;6.824;2024-01-27T03:47:42;9.80;;;4.10;;
19889;SDS011;10107;51.198;6.824;2024-01-27T03:51:44;9.93;;;4.50;;
19889;SDS011;10107;51.198;6.824;2024-01-27T03:55:45;12.10;;;3.95;;
19889;SDS011;10107;51.198;6.824;2024-01-27T03:59:47;7.95;;;3.80;;
19889;SDS011;10107;51.198;6.824;2024-01-27T04:03:50;9.63;;;4.30;;
19889;SDS011;10107;51.198;6.824;2024-01-27T04:07:51;8.68;;;4.15;;
19889;SDS011;10107;51.198;6.824;2024-01-27T04:11:53;10.57;;;4.00;;
19889;SDS011;10107;51.198;6.824;2024-01-27T04:15:55;8.40;;;4.03;;
19889;SDS011;10107;51.198;6.824;2024-01-27T04:20:00;9.10;;;4.10;;
19889;SDS011;10107;51.198;6.824;2024-01-27T04:24:02;10.77;;;4.00;;
19889;SDS011;10107;51.198;6.824;2024-01-27T04:28:04;13.93;;;4.68;;
19889;SDS011;10107;51.198;6.824;2024-01-27T04:32:06;12.25;;;4.15;;
19889;SDS011;10107;51.198;6.824;2024-01-27T04:36:09;8.65;;;4.18;;
19889;SDS011;10107;51.198;6.824;2024-01-27T04:40:11;10.00;;;4.05;;
19889;SDS011;10107;51.198;6.824;2024-01-27T04:44:14;8.88;;;3.85;;
19889;SDS011;10107;51.198;6.824;2024-01-27T04:48:16;9.25;;;3.83;;
19889;SDS011;10107;51.198;6.824;2024-01-27T04:52:19;8.35;;;4.25;;
19889;SDS011;10107;51.198;6.824;2024-01-27T04:56:21;9.13;;;4.15;;
19889;SDS011;10107;51.198;6.824;2024-01-27T05:00:22;11.35;;;4.40;;
19889;SDS011;10107;51.198;6.824;2024-01-27T05:04:26;8.68;;;4.00;;
19889;SDS011;10107;51.198;6.824;2024-01-27T05:08:29;7.82;;;3.88;;
19889;SDS011;10107;51.198;6.824;2024-01-27T05:12:31;9.15;;;4.40;;
19889;SDS011;10107;51.198;6.824;2024-01-27T05:16:33;12.43;;;4.63;;
19889;SDS011;10107;51.198;6.824;2024-01-27T05:20:34;10.02;;;4.95;;
19889;SDS011;10107;51.198;6.824;2024-01-27T05:24:37;13.20;;;4.60;;
19889;SDS011;10107;51.198;6.824;2024-01-27T05:28:39;11.27;;;4.72;;
19889;SDS011;10107;51.198;6.824;2024-01-27T05:32:41;11.25;;;4.63;;
19889;SDS011;10107;51.198;6.824;2024-01-27T05:36:43;9.32;;;4.57;;
19889;SDS011;10107;51.198;6.824;2024-01-27T05:40:45;12.93;;;5.10;;
19889;SDS011;10107;51.198;6.824;2024-01-27T05:44:49;8.75;;;4.13;;
19889;SDS011;10107;51.198;6.824;2024-01-27T05:48:51;7.00;;;3.78;;
19889;SDS011;10107;51.198;6.824;2024-01-27T05:52:54;10.00;;;4.47;;
19889;SDS011;10107;51.198;6.824;2024-01-27T05:56:57;11.93;;;4.82;;
19889;SDS011;10107;51.198;6.824;2024-01-27T06:00:58;14.43;;;4.65;;
19889;SDS011;10107;51.198;6.824;2024-01-27T06:05:00;10.98;;;4.60;;
19889;SDS011;10107;51.198;6.824;2024-01-27T06:09:02;11.65;;;4.75;;
19889;SDS011;10107;51.198;6.824;2024-01-27T06:13:05;11.40;;;4.40;;
19889;SDS011;10107;51.198;6.824;2024-01-27T06:17:06;10.00;;;4.50;;
19889;SDS011;10107;51.198;6.824;2024-01-27T06:21:08;12.95;;;4.60;;
19889;SDS011;10107;51.198;6.824;2024-01-27T06:25:11;7.35;;;4.40;;
19889;SDS011;10107;51.198;6.824;2024-01-27T06:29:14;9.73;;;4.47;;
19889;SDS011;10107;51.198;6.824;2024-01-27T06:33:16;7.10;;;4.43;;
19889;SDS011;10107;51.198;6.824;2024-01-27T06:37:18;12.77;;;5.00;;
19889;SDS011;10107;51.198;6.824;2024-01-27T06:41:19;12.77;;;4.60;;
19889;SDS011;10107;51.198;6.824;2024-01-27T06:45:22;13.32;;;5.10;;
19889;SDS011;10107;51.198;6.824;2024-01-27T06:49:24;11.93;;;5.03;;
19889;SDS011;10107;51.198;6.824;2024-01-27T06:53:25;13.48;;;5.03;;
19889;SDS011;10107;51.198;6.824;2024-01-27T06:57:27;15.98;;;4.93;;
19889;SDS011;10107;51.198;6.824;2024-01-27T07:01:30;10.85;;;5.00;;
19889;SDS011;10107;51.198;6.824;2024-01-27T07:05:32;10.75;;;5.00;;
19889;SDS011;10107;51.198;6.824;2024-01-27T07:09:38;11.95;;;5.40;;
19889;SDS011;10107;51.198;6.824;2024-01-27T07:13:40;14.05;;;5.28;;
19889;SDS011;10107;51.198;6.824;2024-01-27T07:17:43;11.57;;;5.75;;
19889;SDS011;10107;51.198;6.824;2024-01-27T07:21:45;14.27;;;5.40;;
19889;SDS011;10107;51.198;6.824;2024-01-27T07:25:47;10.55;;;5.35;;
19889;SDS011;10107;51.198;6.824;2024-01-27T07:29:48;13.38;;;4.95;;
19889;SDS011;10107;51.198;6.824;2024-01-27T07:33:52;10.93;;;5.35;;
19889;SDS011;10107;51.198;6.824;2024-01-27T07:37:53;8.90;;;5.28;;
19889;SDS011;10107;51.198;6.824;2024-01-27T07:41:55;10.52;;;5.22;;
19889;SDS011;10107;51.198;6.824;2024-01-27T07:45:56;11.77;;;5.40;;
19889;SDS011;10107;51.198;6.824;2024-01-27T07:49:59;10.25;;;5.30;;
19889;SDS011;10107;51.198;6.824;2024-01-27T07:54:01;8.05;;;4.80;;
19889;SDS011;10107;51.198;6.824;2024-01-27T07:58:03;10.48;;;5.00;;
19889;SDS011;10107;51.198;6.824;2024-01-27T08:02:06;13.38;;;6.00;;
19889;SDS011;10107;51.198;6.824;2024-01-27T08:06:10;16.42;;;5.38;;
19889;SDS011;10107;51.198;6.824;2024-01-27T08:10:18;10.90;;;4.80;;
19889;SDS011;10107;51.198;6.824;2024-01-27T08:14:19;7.20;;;4.03;;
19889;SDS011;10107;51.198;6.824;2024-01-27T08:18:22;10.48;;;4.13;;
19889;SDS011;10107;51.198;6.824;2024-01-27T08:22:26;10.63;;;4.05;;
19889;SDS011;10107;51.198;6.824;2024-01-27T08:26:28;7.45;;;4.22;;
19889;SDS011;10107;51.198;6.824;2024-01-27T08:30:30;8.60;;;3.80;;
19889;SDS011;10107;51.198;6.824;2024-01-27T08:34:31;10.38;;;4.22;;
19889;SDS011;10107;51.198;6.824;2024-01-27T08:38:34;8.02;;;3.50;;
19889;SDS011;10107;51.198;6.824;2024-01-27T08:42:36;5.43;;;2.92;;
19889;SDS011;10107;51.198;6.824;2024-01-27T08:46:38;9.38;;;3.38;;
19889;SDS011;10107;51.198;6.824;2024-01-27T08:50:39;10.93;;;3.25;;
19889;SDS011;10107;51.198;6.824;2024-01-27T08:54:42;8.45;;;3.10;;
19889;SDS011;10107;51.198;6.824;2024-01-27T08:58:44;10.23;;;3.20;;
19889;SDS011;10107;51.198;6.824;2024-01-27T09:02:47;10.25;;;3.47;;
19889;SDS011;10107;51.198;6.824;2024-01-27T09:06:49;8.63;;;3.30;;
19889;SDS011;10107;51.198;6.824;2024-01-27T09:10:52;8.23;;;3.40;;
19889;SDS011;10107;51.198;6.824;2024-01-27T09:14:54;10.05;;;3.60;;
19889;SDS011;10107;51.198;6.824;2024-01-27T09:18:55;6.78;;;3.30;;
19889;SDS011;10107;51.198;6.824;2024-01-27T09:22:57;8.57;;;3.45;;
19889;SDS011;10107;51.198;6.824;2024-01-27T09:27:00;11.07;;;3.60;;
19889;SDS011;10107;51.198;6.824;2024-01-27T09:31:02;6.90;;;2.37;;
19889;SDS011;10107;51.198;6.824;2024-01-27T09:35:04;7.75;;;3.10;;
19889;SDS011;10107;51.198;6.824;2024-01-27T09:39:06;9.55;;;3.30;;
19889;SDS011;10107;51.198;6.824;2024-01-27T09:43:10;9.02;;;3.20;;
19889;SDS011;10107;51.198;6.824;2024-01-27T09:47:14;10.23;;;3.50;;
19889;SDS011;10107;51.198;6.824;2024-01-27T09:51:16;7.72;;;3.63;;
19889;SDS011;10107;51.198;6.824;2024-01-27T09:55:18;9.00;;;3.65;;
19889;SDS011;10107;51.198;6.824;2024-01-27T09:59:21;11.43;;;4.43;;
19889;SDS011;10107;51.198;6.824;2024-01-27T10:03:23;11.45;;;3.60;;
19889;SDS011;10107;51.198;6.824;2024-01-27T10:07:26;10.88;;;3.95;;
19889;SDS011;10107;51.198;6.824;2024-01-27T10:11:29;13.02;;;3.92;;
19889;SDS011;10107;51.198;6.824;2024-01-27T10:15:35;8.10;;;3.47;;
19889;SDS011;10107;51.198;6.824;2024-01-27T10:19:36;9.15;;;4.18;;
19889;SDS011;10107;51.198;6.824;2024-01-27T10:23:38;14.73;;;4.85;;
19889;SDS011;10107;51.198;6.824;2024-01-27T10:27:40;12.77;;;4.15;;
19889;SDS011;10107;51.198;6.824;2024-01-27T10:31:43;10.43;;;4.28;;
19889;SDS011;10107;51.198;6.824;2024-01-27T10:35:45;8.82;;;3.70;;
19889;SDS011;10107;51.198;6.824;2024-01-27T10:39:46;9.75;;;3.75;;
19889;SDS011;10107;51.198;6.824;2024-01-27T10:43:49;9.45;;;3.42;;
19889;SDS011;10107;51.198;6.824;2024-01-27T10:47:52;10.10;;;3.90;;
19889;SDS011;10107;51.198;6.824;2024-01-27T10:52:00;9.50;;;3.97;;
19889;SDS011;10107;51.198;6.824;2024-01-27T10:56:08;12.43;;;4.15;;
19889;SDS011;10107;51.198;6.824;2024-01-27T11:00:11;8.47;;;3.57;;
19889;SDS011;10107;51.198;6.824;2024-01-27T11:04:17;8.25;;;3.85;;
19889;SDS011;10107;51.198;6.824;2024-01-27T11:08:20;8.95;;;3.85;;
19889;SDS011;10107;51.198;6.824;2024-01-27T11:12:24;11.80;;;4.10;;
19889;SDS011;10107;51.198;6.824;2024-01-27T11:16:27;10.43;;;4.00;;
19889;SDS011;10107;51.198;6.824;2024-01-27T11:20:31;12.07;;;3.60;;
19889;SDS011;10107;51.198;6.824;2024-01-27T11:24:34;14.50;;;4.60;;
19889;SDS011;10107;51.198;6.824;2024-01-27T11:28:35;9.48;;;3.78;;
19889;SDS011;10107;51.198;6.824;2024-01-27T11:32:37;11.43;;;4.05;;
19889;SDS011;10107;51.198;6.824;2024-01-27T11:36:40;9.93;;;3.88;;
19889;SDS011;10107;51.198;6.824;2024-01-27T11:40:45;5.23;;;2.90;;
19889;SDS011;10107;51.198;6.824;2024-01-27T11:44:47;10.07;;;4.03;;
19889;SDS011;10107;51.198;6.824;2024-01-27T11:48:49;11.38;;;4.45;;
19889;SDS011;10107;51.198;6.824;2024-01-27T11:52:52;12.48;;;4.25;;
19889;SDS011;10107;51.198;6.824;2024-01-27T11:56:54;12.57;;;4.13;;
19889;SDS011;10107;51.198;6.824;2024-01-27T12:00:56;13.73;;;6.75;;
19889;SDS011;10107;51.198;6.824;2024-01-27T12:04:58;11.98;;;4.68;;
19889;SDS011;10107;51.198;6.824;2024-01-27T12:09:01;10.98;;;3.47;;
19889;SDS011;10107;51.198;6.824;2024-01-27T12:13:03;13.50;;;4.07;;
19889;SDS011;10107;51.198;6.824;2024-01-27T12:17:07;10.75;;;3.83;;
19889;SDS011;10107;51.198;6.824;2024-01-27T12:21:11;9.18;;;3.90;;
19889;SDS011;10107;51.198;6.824;2024-01-27T12:25:15;13.93;;;4.57;;
19889;SDS011;10107;51.198;6.824;2024-01-27T12:33:20;13.48;;;3.85;;
19889;SDS011;10107;51.198;6.824;2024-01-27T12:41:28;8.32;;;3.35;;
19889;SDS011;10107;51.198;6.824;2024-01-27T12:45:33;9.55;;;3.10;;
19889;SDS011;10107;51.198;6.824;2024-01-27T12:49:35;10.82;;;3.70;;
19889;SDS011;10107;51.198;6.824;2024-01-27T12:53:38;9.00;;;3.45;;
19889;SDS011;10107;51.198;6.824;2024-01-27T12:57:43;9.82;;;3.00;;
19889;SDS011;10107;51.198;6.824;2024-01-27T13:01:45;10.95;;;3.42;;
19889;SDS011;10107;51.198;6.824;2024-01-27T13:05:47;10.18;;;3.08;;
19889;SDS011;10107;51.198;6.824;2024-01-27T13:09:48;12.43;;;2.90;;
19889;SDS011;10107;51.198;6.824;2024-01-27T13:13:52;7.72;;;3.70;;
19889;SDS011;10107;51.198;6.824;2024-01-27T13:17:54;10.90;;;3.92;;
19889;SDS011;10107;51.198;6.824;2024-01-27T13:21:56;10.30;;;3.40;;
19889;SDS011;10107;51.198;6.824;2024-01-27T13:25:58;10.10;;;3.35;;
19889;SDS011;10107;51.198;6.824;2024-01-27T13:30:01;7.55;;;2.67;;
19889;SDS011;10107;51.198;6.824;2024-01-27T13:34:03;7.07;;;2.78;;
19889;SDS011;10107;51.198;6.824;2024-01-27T13:38:05;11.23;;;3.35;;
19889;SDS011;10107;51.198;6.824;2024-01-27T13:42:07;9.65;;;2.95;;
19889;SDS011;10107;51.198;6.824;2024-01-27T13:46:10;9.35;;;2.78;;
19889;SDS011;10107;51.198;6.824;2024-01-27T13:50:12;6.93;;;2.70;;
19889;SDS011;10107;51.198;6.824;2024-01-27T13:54:14;8.38;;;2.70;;
19889;SDS011;10107;51.198;6.824;2024-01-27T13:58:16;8.50;;;2.58;;
19889;SDS011;10107;51.198;6.824;2024-01-27T14:02:19;9.23;;;2.75;;
19889;SDS011;10107;51.198;6.824;2024-01-27T14:06:22;8.40;;;2.58;;
19889;SDS011;10107;51.198;6.824;2024-01-27T14:10:23;11.25;;;2.67;;
19889;SDS011;10107;51.198;6.824;2024-01-27T14:14:25;11.23;;;2.50;;
19889;SDS011;10107;51.198;6.824;2024-01-27T14:18:28;6.38;;;2.50;;
19889;SDS011;10107;51.198;6.824;2024-01-27T14:22:31;6.10;;;2.08;;
19889;SDS011;10107;51.198;6.824;2024-01-27T14:26:33;10.55;;;3.15;;
19889;SDS011;10107;51.198;6.824;2024-01-27T14:30:35;7.63;;;2.30;;
19889;SDS011;10107;51.198;6.824;2024-01-27T14:34:40;8.30;;;2.38;;
19889;SDS011;10107;51.198;6.824;2024-01-27T14:38:42;7.28;;;2.33;;
19889;SDS011;10107;51.198;6.824;2024-01-27T14:42:44;7.03;;;2.50;;
19889;SDS011;10107;51.198;6.824;2024-01-27T14:46:46;8.53;;;2.80;;
19889;SDS011;10107;51.198;6.824;2024-01-27T14:50:49;6.82;;;2.28;;
19889;SDS011;10107;51.198;6.824;2024-01-27T14:54:57;4.47;;;2.20;;
19889;SDS011;10107;51.198;6.824;2024-01-27T14:58:59;5.57;;;2.58;;
19889;SDS011;10107;51.198;6.824;2024-01-27T15:03:00;8.25;;;2.63;;
19889;SDS011;10107;51.198;6.824;2024-01-27T15:07:04;7.18;;;2.53;;
19889;SDS011;10107;51.198;6.824;2024-01-27T15:11:05;9.70;;;2.90;;
19889;SDS011;10107;51.198;6.824;2024-01-27T15:15:07;7.28;;;2.28;;
19889;SDS011;10107;51.198;6.824;2024-01-27T15:19:09;6.63;;;2.45;;
19889;SDS011;10107;51.198;6.824;2024-01-27T15:23:12;6.50;;;2.20;;
19889;SDS011;10107;51.198;6.824;2024-01-27T15:27:14;8.00;;;2.42;;
19889;SDS011;10107;51.198;6.824;2024-01-27T15:31:16;7.13;;;2.08;;
19889;SDS011;10107;51.198;6.824;2024-01-27T15:35:18;7.78;;;2.60;;
19889;SDS011;10107;51.198;6.824;2024-01-27T15:39:21;8.88;;;2.45;;
19889;SDS011;10107;51.198;6.824;2024-01-27T15:43:22;9.93;;;2.40;;
19889;SDS011;10107;51.198;6.824;2024-01-27T15:47:24;9.43;;;2.50;;
19889;SDS011;10107;51.198;6.824;2024-01-27T15:51:26;6.05;;;2.03;;
19889;SDS011;10107;51.198;6.824;2024-01-27T15:55:29;4.47;;;1.95;;
19889;SDS011;10107;51.198;6.824;2024-01-27T15:59:32;8.43;;;2.80;;
19889;SDS011;10107;51.198;6.824;2024-01-27T16:03:35;5.57;;;3.33;;
19889;SDS011;10107;51.198;6.824;2024-01-27T16:07:37;10.75;;;3.90;;
19889;SDS011;10107;51.198;6.824;2024-01-27T16:11:40;6.70;;;3.13;;
19889;SDS011;10107;51.198;6.824;2024-01-27T16:15:42;5.72;;;3.03;;
19889;SDS011;10107;51.198;6.824;2024-01-27T16:19:44;6.45;;;3.17;;
19889;SDS011;10107;51.198;6.824;2024-01-27T16:23:46;10.30;;;4.32;;
19889;SDS011;10107;51.198;6.824;2024-01-27T16:27:49;7.40;;;4.57;;
19889;SDS011;10107;51.198;6.824;2024-01-27T16:31:50;8.05;;;4.00;;
19889;SDS011;10107;51.198;6.824;2024-01-27T16:35:52;8.68;;;3.95;;
19889;SDS011;10107;51.198;6.824;2024-01-27T16:39:54;9.82;;;4.30;;
19889;SDS011;10107;51.198;6.824;2024-01-27T16:43:57;9.70;;;4.78;;
19889;SDS011;10107;51.198;6.824;2024-01-27T16:47:59;7.05;;;4.13;;
19889;SDS011;10107;51.198;6.824;2024-01-27T16:52:03;10.90;;;5.00;;
19889;SDS011;10107;51.198;6.824;2024-01-27T16:56:05;9.65;;;5.55;;
19889;SDS011;10107;51.198;6.824;2024-01-27T17:00:09;13.05;;;6.28;;
19889;SDS011;10107;51.198;6.824;2024-01-27T17:04:12;15.65;;;8.32;;
19889;SDS011;10107;51.198;6.824;2024-01-27T17:08:14;15.27;;;9.23;;
19889;SDS011;10107;51.198;6.824;2024-01-27T17:12:16;16.50;;;9.02;;
19889;SDS011;10107;51.198;6.824;2024-01-27T17:16:19;16.42;;;9.45;;
19889;SDS011;10107;51.198;6.824;2024-01-27T17:20:20;13.75;;;8.32;;
19889;SDS011;10107;51.198;6.824;2024-01-27T17:24:23;13.63;;;6.95;;
19889;SDS011;10107;51.198;6.824;2024-01-27T17:28:25;14.27;;;7.85;;
19889;SDS011;10107;51.198;6.824;2024-01-27T17:32:28;14.75;;;8.23;;
19889;SDS011;10107;51.198;6.824;2024-01-27T17:36:29;16.88;;;8.35;;
19889;SDS011;10107;51.198;6.824;2024-01-27T17:40:31;16.70;;;9.15;;
19889;SDS011;10107;51.198;6.824;2024-01-27T17:44:33;19.52;;;10.23;;
19889;SDS011;10107;51.198;6.824;2024-01-27T17:48:36;20.90;;;11.77;;
19889;SDS011;10107;51.198;6.824;2024-01-27T17:52:40;19.88;;;10.75;;
19889;SDS011;10107;51.198;6.824;2024-01-27T17:56:41;20.05;;;11.45;;
19889;SDS011;10107;51.198;6.824;2024-01-27T18:00:43;20.52;;;10.93;;
19889;SDS011;10107;51.198;6.824;2024-01-27T18:04:46;25.45;;;11.68;;
19889;SDS011;10107;51.198;6.824;2024-01-27T18:08:47;24.45;;;12.32;;
19889;SDS011;10107;51.198;6.824;2024-01-27T18:12:49;22.88;;;11.88;;
19889;SDS011;10107;51.198;6.824;2024-01-27T18:16:51;21.23;;;11.25;;
19889;SDS011;10107;51.198;6.824;2024-01-27T18:20:54;21.25;;;11.02;;
19889;SDS011;10107;51.198;6.824;2024-01-27T18:24:55;19.13;;;9.40;;
19889;SDS011;10107;51.198;6.824;2024-01-27T18:28:57;19.52;;;9.57;;
19889;SDS011;10107;51.198;6.824;2024-01-27T18:32:59;13.90;;;8.25;;
19889;SDS011;10107;51.198;6.824;2024-01-27T18:37:02;17.00;;;8.98;;
19889;SDS011;10107;51.198;6.824;2024-01-27T18:41:04;19.08;;;9.13;;
19889;SDS011;10107;51.198;6.824;2024-01-27T18:45:06;15.93;;;8.65;;
19889;SDS011;10107;51.198;6.824;2024-01-27T18:49:08;14.73;;;8.70;;
19889;SDS011;10107;51.198;6.824;2024-01-27T18:53:11;17.90;;;8.05;;
19889;SDS011;10107;51.198;6.824;2024-01-27T18:57:13;16.40;;;8.38;;
19889;SDS011;10107;51.198;6.824;2024-01-27T19:01:15;15.15;;;7.45;;
19889;SDS011;10107;51.198;6.824;2024-01-27T19:05:16;13.25;;;7.55;;
19889;SDS011;10107;51.198;6.824;2024-01-27T19:09:20;17.37;;;8.10;;
19889;SDS011;10107;51.198;6.824;2024-01-27T19:13:22;14.32;;;7.50;;
19889;SDS011;10107;51.198;6.824;2024-01-27T19:17:24;14.07;;;7.80;;
19889;SDS011;10107;51.198;6.824;2024-01-27T19:21:25;13.52;;;6.72;;
19889;SDS011;10107;51.198;6.824;2024-01-27T19:25:29;13.68;;;7.30;;
19889;SDS011;10107;51.198;6.824;2024-01-27T19:29:31;12.25;;;6.88;;
19889;SDS011;10107;51.198;6.824;2024-01-27T19:33:32;12.82;;;6.82;;
19889;SDS011;10107;51.198;6.824;2024-01-27T19:37:34;10.80;;;6.68;;
19889;SDS011;10107;51.198;6.824;2024-01-27T19:41:37;12.25;;;6.78;;
19889;SDS011;10107;51.198;6.824;2024-01-27T19:45:39;11.75;;;6.82;;
19889;SDS011;10107;51.198;6.824;2024-01-27T19:49:40;11.38;;;6.70;;
19889;SDS011;10107;51.198;6.824;2024-01-27T19:53:42;15.43;;;7.13;;
19889;SDS011;10107;51.198;6.824;2024-01-27T19:57:45;12.93;;;6.93;;
19889;SDS011;10107;51.198;6.824;2024-01-27T20:01:47;12.70;;;7.40;;
19889;SDS011;10107;51.198;6.824;2024-01-27T20:05:49;18.27;;;7.60;;
19889;SDS011;10107;51.198;6.824;2024-01-27T20:09:51;14.75;;;7.95;;
19889;SDS011;10107;51.198;6.824;2024-01-27T20:13:54;18.75;;;7.72;;
19889;SDS011;10107;51.198;6.824;2024-01-27T20:17:56;15.88;;;8.07;;
19889;SDS011;10107;51.198;6.824;2024-01-27T20:21:58;21.02;;;7.80;;
19889;SDS011;10107;51.198;6.824;2024-01-27T20:25:59;13.15;;;7.30;;
19889;SDS011;10107;51.198;6.824;2024-01-27T20:30:03;12.57;;;7.05;;
19889;SDS011;10107;51.198;6.824;2024-01-27T20:34:06;16.90;;;7.60;;
19889;SDS011;10107;51.198;6.824;2024-01-27T20:38:08;12.60;;;6.40;;
19889;SDS011;10107;51.198;6.824;2024-01-27T20:42:10;11.77;;;6.70;;
19889;SDS011;10107;51.198;6.824;2024-01-27T20:46:15;12.82;;;6.80;;
19889;SDS011;10107;51.198;6.824;2024-01-27T20:50:18;15.18;;;8.35;;
19889;SDS011;10107;51.198;6.824;2024-01-27T20:54:19;17.88;;;8.27;;
19889;SDS011;10107;51.198;6.824;2024-01-27T20:58:21;20.27;;;7.90;;
19889;SDS011;10107;51.198;6.824;2024-01-27T21:02:24;16.33;;;7.90;;
19889;SDS011;10107;51.198;6.824;2024-01-27T21:06:26;13.25;;;7.38;;
19889;SDS011;10107;51.198;6.824;2024-01-27T21:10:27;17.17;;;7.63;;
19889;SDS011;10107;51.198;6.824;2024-01-27T21:14:29;15.68;;;8.25;;
19889;SDS011;10107;51.198;6.824;2024-01-27T21:18:32;20.30;;;7.97;;
19889;SDS011;10107;51.198;6.824;2024-01-27T21:22:34;12.82;;;6.95;;
19889;SDS011;10107;51.198;6.824;2024-01-27T21:26:36;13.07;;;6.70;;
19889;SDS011;10107;51.198;6.824;2024-01-27T21:30:38;17.67;;;6.85;;
19889;SDS011;10107;51.198;6.824;2024-01-27T21:34:41;14.98;;;7.00;;
19889;SDS011;10107;51.198;6.824;2024-01-27T21:38:42;13.32;;;7.47;;
19889;SDS011;10107;51.198;6.824;2024-01-27T21:42:44;15.52;;;7.68;;
19889;SDS011;10107;51.198;6.824;2024-01-27T21:46:46;15.88;;;7.63;;
19889;SDS011;10107;51.198;6.824;2024-01-27T21:50:49;15.85;;;7.55;;
19889;SDS011;10107;51.198;6.824;2024-01-27T21:54:50;12.68;;;6.90;;
19889;SDS011;10107;51.198;6.824;2024-01-27T21:58:52;13.63;;;6.32;;
19889;SDS011;10107;51.198;6.824;2024-01-27T22:02:55;10.97;;;6.10;;
19889;SDS011;10107;51.198;6.824;2024-01-27T22:06:58;12.95;;;5.60;;
19889;SDS011;10107;51.198;6.824;2024-01-27T22:11:00;9.77;;;5.63;;
19889;SDS011;10107;51.198;6.824;2024-01-27T22:15:02;12.75;;;5.40;;
19889;SDS011;10107;51.198;6.824;2024-01-27T22:19:06;9.63;;;4.75;;
19889;SDS011;10107;51.198;6.824;2024-01-27T22:23:09;12.70;;;5.88;;
19889;SDS011;10107;51.198;6.824;2024-01-27T22:27:10;7.72;;;5.20;;
19889;SDS011;10107;51.198;6.824;2024-01-27T22:31:13;11.50;;;5.73;;
19889;SDS011;10107;51.198;6.824;2024-01-27T22:35:16;13.55;;;5.00;;
19889;SDS011;10107;51.198;6.824;2024-01-27T22:39:20;11.75;;;5.15;;
19889;SDS011;10107;51.198;6.824;2024-01-27T22:43:22;10.68;;;5.63;;
19889;SDS011;10107;51.198;6.824;2024-01-27T22:47:23;10.38;;;4.95;;
19889;SDS011;10107;51.198;6.824;2024-01-27T22:51:25;12.30;;;5.28;;
19889;SDS011;10107;51.198;6.824;2024-01-27T22:55:28;9.27;;;4.72;;
19889;SDS011;10107;51.198;6.824;2024-01-27T22:59:30;11.57;;;4.55;;
19889;SDS011;10107;51.198;6.824;2024-01-27T23:03:32;10.60;;;4.32;;
19889;SDS011;10107;51.198;6.824;2024-01-27T23:07:33;8.25;;;4.55;;
19889;SDS011;10107;51.198;6.824;2024-01-27T23:11:36;13.40;;;4.78;;
19889;SDS011;10107;51.198;6.824;2024-01-27T23:15:38;9.35;;;4.30;;
19889;SDS011;10107;51.198;6.824;2024-01-27T23:19:41;10.02;;;4.30;;
19889;SDS011;10107;51.198;6.824;2024-01-27T23:23:43;10.05;;;4.18;;
19889;SDS011;10107;51.198;6.824;2024-01-27T23:27:46;5.95;;;3.95;;
19889;SDS011;10107;51.198;6.824;2024-01-27T23:31:47;9.40;;;4.35;;
19889;SDS011;10107;51.198;6.824;2024-01-27T23:35:49;11.77;;;4.20;;
19889;SDS011;10107;51.198;6.824;2024-01-27T23:39:51;11.85;;;3.88;;
19889;SDS011;10107;51.198;6.824;2024-01-27T23:43:54;7.65;;;4.07;;
19889;SDS011;10107;51.198;6.824;2024-01-27T23:47:55;8.82;;;3.63;;
19889;SDS011;10107;51.198;6.824;2024-01-27T23:51:57;11.13;;;4.40;;
19889;SDS011;10107;51.198;6.824;2024-01-27T23:55:58;10.40;;;4.13;;
